Time,TemperatureF,DewpointF,PressureIn,WindDirection,WindDirectionDegrees,WindSpeedMPH,WindSpeedGustMPH,Humidity,HourlyPrecipIn,Conditions,Clouds,dailyrainin,SolarRadiationWatts/m^2,SoftwareType,DateUTC
2013-01-26 00:21:00,61.0,61.0,-100.00,SSW,205,2.0,6.0,100,0.00,,,0.00,0.000000,,2013-01-26 10:21:00,
2013-01-26 00:31:00,61.0,61.0,-100.00,SSW,205,2.0,6.0,100,0.00,,,0.00,0.000000,,2013-01-26 10:31:00,
2013-01-26 00:42:00,61.0,61.0,-100.00,SSW,205,2.0,6.0,100,0.00,,,0.00,0.000000,,2013-01-26 10:42:00,
2013-01-26 00:52:00,61.0,61.0,-100.00,SSW,205,2.0,6.0,100,0.00,,,0.00,0.000000,,2013-01-26 10:52:00,
2013-01-26 01:22:00,60.0,60.0,-100.00,WSW,245,5.0,6.0,100,0.00,,,0.00,0.000000,,2013-01-26 11:22:00,
2013-01-26 01:32:00,60.0,60.0,-100.00,WSW,245,5.0,6.0,100,0.00,,,0.00,0.000000,,2013-01-26 11:32:00,
2013-01-26 01:42:00,60.0,60.0,-100.00,WSW,245,5.0,6.0,100,0.00,,,0.00,0.000000,,2013-01-26 11:42:00,
2013-01-26 01:52:00,60.0,60.0,-100.00,WSW,245,5.0,6.0,100,0.00,,,0.00,0.000000,,2013-01-26 11:52:00,
2013-01-26 02:22:00,60.0,60.0,-100.00,SW,230,5.0,7.0,100,0.00,,,0.00,0.000000,,2013-01-26 12:22:00,
2013-01-26 02:33:00,60.0,60.0,-100.00,SW,230,5.0,7.0,100,0.00,,,0.00,0.000000,,2013-01-26 12:33:00,
2013-01-26 02:42:00,60.0,60.0,-100.00,SW,230,5.0,7.0,100,0.00,,,0.00,0.000000,,2013-01-26 12:42:00,
2013-01-26 02:52:00,60.0,60.0,-100.00,SW,230,5.0,7.0,100,0.00,,,0.00,0.000000,,2013-01-26 12:52:00,
2013-01-26 03:22:00,58.0,58.0,-100.00,West,275,2.0,6.0,100,0.00,,,0.00,0.000000,,2013-01-26 13:22:00,
2013-01-26 03:32:00,58.0,58.0,-100.00,West,275,2.0,6.0,100,0.00,,,0.00,0.000000,,2013-01-26 13:32:00,
2013-01-26 03:42:00,58.0,58.0,-100.00,West,275,2.0,6.0,100,0.00,,,0.00,0.000000,,2013-01-26 13:42:00,
2013-01-26 03:52:00,58.0,58.0,-100.00,West,275,2.0,6.0,100,0.00,,,0.00,0.000000,,2013-01-26 13:52:00,
2013-01-26 04:21:00,57.0,57.0,-100.00,WSW,237,4.0,6.0,100,0.00,,,0.00,0.000000,,2013-01-26 14:21:00,
2013-01-26 04:32:00,57.0,57.0,-100.00,WSW,237,4.0,6.0,100,0.00,,,0.00,0.000000,,2013-01-26 14:32:00,
2013-01-26 04:42:00,57.0,57.0,-100.00,WSW,237,4.0,6.0,100,0.00,,,0.00,0.000000,,2013-01-26 14:42:00,
2013-01-26 04:52:00,57.0,57.0,-100.00,WSW,237,4.0,6.0,100,0.00,,,0.00,0.000000,,2013-01-26 14:52:00,
2013-01-26 05:22:00,57.0,57.0,-100.00,South,186,1.0,6.0,100,0.00,,,0.00,0.000000,,2013-01-26 15:22:00,
2013-01-26 05:32:00,57.0,57.0,-100.00,South,186,1.0,6.0,100,0.00,,,0.00,0.000000,,2013-01-26 15:32:00,
2013-01-26 05:43:00,57.0,57.0,-100.00,South,186,1.0,6.0,100,0.00,,,0.00,0.000000,,2013-01-26 15:43:00,
2013-01-26 05:52:00,57.0,57.0,-100.00,South,186,1.0,6.0,100,0.00,,,0.00,0.000000,,2013-01-26 15:52:00,
2013-01-26 06:22:00,57.0,57.0,-100.00,SW,221,2.0,3.0,100,0.00,,,0.00,0.000000,,2013-01-26 16:22:00,
2013-01-26 06:32:00,57.0,57.0,-100.00,SW,221,2.0,3.0,100,0.00,,,0.00,0.000000,,2013-01-26 16:32:00,
2013-01-26 06:42:00,57.0,57.0,-100.00,SW,221,2.0,3.0,100,0.00,,,0.00,0.000000,,2013-01-26 16:42:00,
2013-01-26 06:52:00,57.0,57.0,-100.00,SW,221,2.0,3.0,100,0.00,,,0.00,0.000000,,2013-01-26 16:52:00,
2013-01-26 07:22:00,58.0,58.0,-100.00,SW,234,4.0,6.0,100,0.00,,,0.00,0.000000,,2013-01-26 17:22:00,
2013-01-26 07:32:00,58.0,58.0,-100.00,SW,234,4.0,6.0,100,0.00,,,0.00,0.000000,,2013-01-26 17:32:00,
2013-01-26 07:42:00,58.0,58.0,-100.00,SW,234,4.0,6.0,100,0.00,,,0.00,0.000000,,2013-01-26 17:42:00,
2013-01-26 07:52:00,58.0,58.0,-100.00,SW,234,4.0,6.0,100,0.00,,,0.00,0.000000,,2013-01-26 17:52:00,
2013-01-26 08:22:00,59.0,59.0,-100.00,WSW,239,6.0,7.0,100,0.00,,,0.00,20.000000,,2013-01-26 18:22:00,
2013-01-26 08:32:00,59.0,59.0,-100.00,WSW,239,6.0,7.0,100,0.00,,,0.00,20.000000,,2013-01-26 18:32:00,
2013-01-26 08:42:00,59.0,59.0,-100.00,WSW,239,6.0,7.0,100,0.00,,,0.00,20.000000,,2013-01-26 18:42:00,
2013-01-26 08:52:00,59.0,59.0,-100.00,WSW,239,6.0,7.0,100,0.00,,,0.00,20.000000,,2013-01-26 18:52:00,
2013-01-26 09:22:00,70.0,70.0,-100.00,SSE,168,2.0,6.0,100,0.00,,,0.00,124.000000,,2013-01-26 19:22:00,
2013-01-26 09:32:00,70.0,70.0,-100.00,SSE,168,2.0,6.0,100,0.00,,,0.00,124.000000,,2013-01-26 19:32:00,
2013-01-26 09:42:00,70.0,70.0,-100.00,SSE,168,2.0,6.0,100,0.00,,,0.00,124.000000,,2013-01-26 19:42:00,
2013-01-26 09:52:00,70.0,70.0,-100.00,SSE,168,2.0,6.0,100,0.00,,,0.00,124.000000,,2013-01-26 19:52:00,
2013-01-26 10:21:00,76.0,71.0,-100.00,East,99,3.0,7.0,85,0.00,,,0.00,333.000000,,2013-01-26 20:21:00,
2013-01-26 10:32:00,76.0,71.0,-100.00,East,99,3.0,7.0,85,0.00,,,0.00,333.000000,,2013-01-26 20:32:00,
2013-01-26 10:42:00,76.0,71.0,-100.00,East,99,3.0,7.0,85,0.00,,,0.00,333.000000,,2013-01-26 20:42:00,
2013-01-26 10:52:00,76.0,71.0,-100.00,East,99,3.0,7.0,85,0.00,,,0.00,333.000000,,2013-01-26 20:52:00,
2013-01-26 11:22:00,77.0,70.0,-100.00,SE,134,8.0,14.0,78,0.00,,,0.00,638.000000,,2013-01-26 21:22:00,
2013-01-26 11:32:00,77.0,70.0,-100.00,SE,134,8.0,14.0,78,0.00,,,0.00,638.000000,,2013-01-26 21:32:00,
2013-01-26 11:42:00,77.0,70.0,-100.00,SE,134,8.0,14.0,78,0.00,,,0.00,638.000000,,2013-01-26 21:42:00,
2013-01-26 11:51:00,77.0,70.0,-100.00,SE,134,8.0,14.0,78,0.00,,,0.00,638.000000,,2013-01-26 21:51:00,
2013-01-26 12:21:00,78.0,69.0,-100.00,SE,127,7.0,18.0,75,0.00,,,0.00,761.000000,,2013-01-26 22:21:00,
2013-01-26 12:31:00,78.0,69.0,-100.00,SE,127,7.0,18.0,75,0.00,,,0.00,761.000000,,2013-01-26 22:31:00,
2013-01-26 12:42:00,78.0,69.0,-100.00,SE,127,7.0,18.0,75,0.00,,,0.00,761.000000,,2013-01-26 22:42:00,
2013-01-26 12:51:00,78.0,69.0,-100.00,SE,127,7.0,18.0,75,0.00,,,0.00,761.000000,,2013-01-26 22:51:00,
2013-01-26 13:21:00,75.0,68.0,-100.00,SE,130,10.0,21.0,80,0.00,,,0.00,797.000000,,2013-01-26 23:21:00,
2013-01-26 13:32:00,75.0,68.0,-100.00,SE,130,10.0,21.0,80,0.00,,,0.00,797.000000,,2013-01-26 23:32:00,
2013-01-26 13:41:00,75.0,68.0,-100.00,SE,130,10.0,21.0,80,0.00,,,0.00,797.000000,,2013-01-26 23:41:00,
2013-01-26 13:52:00,75.0,68.0,-100.00,SE,130,10.0,21.0,80,0.00,,,0.00,797.000000,,2013-01-26 23:52:00,
2013-01-26 14:21:00,66.0,66.0,-100.00,SSE,165,10.0,25.0,100,0.00,,,0.00,163.000000,,2013-01-27 00:21:00,
2013-01-26 14:32:00,66.0,66.0,-100.00,SSE,165,10.0,25.0,100,0.00,,,0.00,163.000000,,2013-01-27 00:32:00,
2013-01-26 14:41:00,66.0,66.0,-100.00,SSE,165,10.0,25.0,100,0.00,,,0.00,163.000000,,2013-01-27 00:41:00,
2013-01-26 14:51:00,66.0,66.0,-100.00,SSE,165,10.0,25.0,100,0.00,,,0.00,163.000000,,2013-01-27 00:51:00,
2013-01-26 15:22:00,69.0,69.0,-100.00,SSE,168,8.0,20.0,99,0.00,,,0.00,209.000000,,2013-01-27 01:22:00,
2013-01-26 15:32:00,69.0,69.0,-100.00,SSE,168,8.0,20.0,99,0.00,,,0.00,209.000000,,2013-01-27 01:32:00,
2013-01-26 15:41:00,69.0,69.0,-100.00,SSE,168,8.0,20.0,99,0.00,,,0.00,209.000000,,2013-01-27 01:41:00,
2013-01-26 15:51:00,69.0,69.0,-100.00,SSE,168,8.0,20.0,99,0.00,,,0.00,209.000000,,2013-01-27 01:51:00,
2013-01-26 16:21:00,71.0,66.0,-100.00,SSE,162,9.0,24.0,85,0.00,,,0.00,165.000000,,2013-01-27 02:21:00,
2013-01-26 16:31:00,71.0,66.0,-100.00,SSE,162,9.0,24.0,85,0.00,,,0.00,165.000000,,2013-01-27 02:31:00,
2013-01-26 16:41:00,71.0,66.0,-100.00,SSE,162,9.0,24.0,85,0.00,,,0.00,165.000000,,2013-01-27 02:41:00,
2013-01-26 16:52:00,71.0,66.0,-100.00,SSE,162,9.0,24.0,85,0.00,,,0.00,165.000000,,2013-01-27 02:52:00,
2013-01-26 17:21:00,72.0,67.0,-100.00,South,181,12.0,22.0,83,0.00,,,0.00,155.000000,,2013-01-27 03:21:00,
2013-01-26 17:31:00,72.0,67.0,-100.00,South,181,12.0,22.0,83,0.00,,,0.00,155.000000,,2013-01-27 03:31:00,
2013-01-26 17:41:00,72.0,67.0,-100.00,South,181,12.0,22.0,83,0.00,,,0.00,155.000000,,2013-01-27 03:41:00,
2013-01-26 17:51:00,72.0,67.0,-100.00,South,181,12.0,22.0,83,0.00,,,0.00,155.000000,,2013-01-27 03:51:00,
2013-01-26 18:21:00,70.0,68.0,-100.00,SSE,157,8.0,23.0,92,0.00,,,0.00,121.000000,,2013-01-27 04:21:00,
2013-01-26 18:31:00,70.0,68.0,-100.00,SSE,157,8.0,23.0,92,0.00,,,0.00,121.000000,,2013-01-27 04:31:00,
2013-01-26 18:41:00,70.0,68.0,-100.00,SSE,157,8.0,23.0,92,0.00,,,0.00,121.000000,,2013-01-27 04:41:00,
2013-01-26 18:51:00,70.0,68.0,-100.00,SSE,157,8.0,23.0,92,0.00,,,0.00,121.000000,,2013-01-27 04:51:00,
2013-01-26 19:22:00,70.0,68.0,-100.00,South,171,9.0,21.0,95,0.00,,,0.00,11.000000,,2013-01-27 05:22:00,
2013-01-26 19:32:00,70.0,68.0,-100.00,South,171,9.0,21.0,95,0.00,,,0.00,11.000000,,2013-01-27 05:32:00,
2013-01-26 19:41:00,70.0,68.0,-100.00,South,171,9.0,21.0,95,0.00,,,0.00,11.000000,,2013-01-27 05:41:00,
2013-01-26 19:51:00,70.0,68.0,-100.00,South,171,9.0,21.0,95,0.00,,,0.00,11.000000,,2013-01-27 05:51:00,
2013-01-26 20:21:00,68.0,67.0,-100.00,South,174,10.0,20.0,97,0.00,,,0.00,0.000000,,2013-01-27 06:21:00,
2013-01-26 20:31:00,68.0,67.0,-100.00,South,174,10.0,20.0,97,0.00,,,0.00,0.000000,,2013-01-27 06:31:00,
2013-01-26 20:41:00,68.0,67.0,-100.00,South,174,10.0,20.0,97,0.00,,,0.00,0.000000,,2013-01-27 06:41:00,
2013-01-26 20:51:00,68.0,67.0,-100.00,South,174,10.0,20.0,97,0.00,,,0.00,0.000000,,2013-01-27 06:51:00,
2013-01-26 21:21:00,68.0,68.0,-100.00,SSE,157,9.0,18.0,100,0.00,,,0.00,0.000000,,2013-01-27 07:21:00,
2013-01-26 21:31:00,68.0,68.0,-100.00,SSE,157,9.0,18.0,100,0.00,,,0.00,0.000000,,2013-01-27 07:31:00,
2013-01-26 21:41:00,68.0,68.0,-100.00,SSE,157,9.0,18.0,100,0.00,,,0.00,0.000000,,2013-01-27 07:41:00,
2013-01-26 21:51:00,68.0,68.0,-100.00,SSE,157,9.0,18.0,100,0.00,,,0.00,0.000000,,2013-01-27 07:51:00,
2013-01-26 22:22:00,69.0,69.0,-100.00,SSE,164,8.0,21.0,99,0.00,,,0.00,0.000000,,2013-01-27 08:22:00,
2013-01-26 22:31:00,69.0,69.0,-100.00,SSE,164,8.0,21.0,99,0.00,,,0.00,0.000000,,2013-01-27 08:31:00,
2013-01-26 22:41:00,69.0,69.0,-100.00,SSE,164,8.0,21.0,99,0.00,,,0.00,0.000000,,2013-01-27 08:41:00,
2013-01-26 22:52:00,69.0,69.0,-100.00,SSE,164,8.0,21.0,99,0.00,,,0.00,0.000000,,2013-01-27 08:52:00,
2013-01-26 23:21:00,69.0,69.0,-100.00,SE,146,9.0,19.0,100,0.01,,,0.01,0.000000,,2013-01-27 09:21:00,
2013-01-26 23:32:00,69.0,69.0,-100.00,SE,146,9.0,19.0,100,0.01,,,0.01,0.000000,,2013-01-27 09:32:00,
2013-01-26 23:41:00,69.0,69.0,-100.00,SE,146,9.0,19.0,100,0.01,,,0.01,0.000000,,2013-01-27 09:41:00,
2013-01-26 23:51:00,69.0,69.0,-100.00,SE,146,9.0,19.0,100,0.01,,,0.01,0.000000,,2013-01-27 09:51:00,